createdAt,value
2016-11-25T00:00:13.410Z,49.2
2016-11-25T00:10:04.359Z,48.7
2016-11-25T00:20:17.196Z,48.7
2016-11-25T00:30:17.147Z,49.2
2016-11-25T00:40:16.078Z,49.2
2016-11-25T00:50:04.441Z,48.7
2016-11-25T01:00:17.140Z,48.7
2016-11-25T01:10:17.156Z,48.7
2016-11-25T01:20:14.611Z,47.6
2016-11-25T01:30:04.428Z,48.7
2016-11-25T01:40:37.142Z,47.6
2016-11-25T01:50:07.153Z,48.2
2016-11-25T02:00:07.125Z,48.7
2016-11-25T02:10:04.569Z,48.7
2016-11-25T02:20:28.616Z,47.6
2016-11-25T02:30:17.126Z,48.2
2016-11-25T02:40:17.124Z,48.2
2016-11-25T02:50:04.551Z,48.2
2016-11-25T03:00:37.121Z,48.2
2016-11-25T03:10:07.163Z,48.7
2016-11-25T03:20:17.126Z,47.6
2016-11-25T03:30:04.627Z,48.7
2016-11-25T03:40:31.128Z,48.7
2016-11-25T03:50:17.128Z,48.2
2016-11-25T04:00:17.157Z,48.2
2016-11-25T04:10:17.160Z,47.6
2016-11-25T04:20:03.898Z,47.6
2016-11-25T04:30:17.158Z,47.6
2016-11-25T04:40:17.159Z,47.6
2016-11-25T04:50:07.956Z,48.2
2016-11-25T05:00:03.326Z,47.6
2016-11-25T05:10:17.163Z,47.6
2016-11-25T05:20:17.196Z,47.6
2016-11-25T05:30:12.951Z,47.6
2016-11-25T05:40:04.687Z,47.1
2016-11-25T05:50:17.169Z,47.6
2016-11-25T06:00:17.127Z,47.1
2016-11-25T06:10:12.053Z,46.5
2016-11-25T06:20:04.655Z,47.6
2016-11-25T06:30:17.156Z,47.1
2016-11-25T06:40:17.166Z,47.1
2016-11-25T06:50:13.507Z,47.1
2016-11-25T07:00:04.720Z,47.1
2016-11-25T07:10:37.161Z,46.5
2016-11-25T07:20:17.127Z,47.1
2016-11-25T07:30:16.338Z,47.6
2016-11-25T07:40:04.748Z,47.6
2016-11-25T07:50:37.141Z,47.6
2016-11-25T08:00:17.162Z,47.6
2016-11-25T08:10:17.092Z,48.2
2016-11-25T08:20:04.872Z,47.1
2016-11-25T08:30:37.171Z,47.6
2016-11-25T08:40:17.128Z,47.6
2016-11-25T08:50:04.929Z,47.6
2016-11-25T09:00:35.152Z,48.2
2016-11-25T09:10:01.447Z,47.6
2016-11-25T09:20:17.122Z,48.2
2016-11-25T09:30:17.168Z,48.2
2016-11-25T09:40:08.743Z,48.2
2016-11-25T09:50:03.488Z,48.2
2016-11-25T10:00:07.159Z,48.7
2016-11-25T10:10:04.900Z,48.7
2016-11-25T10:20:37.130Z,49.2
2016-11-25T10:30:03.290Z,48.7
2016-11-25T10:40:17.150Z,49.2
2016-11-25T10:50:17.130Z,49.8
2016-11-25T11:00:17.158Z,49.8
2016-11-25T11:10:04.789Z,49.2
2016-11-25T11:20:27.160Z,49.8
2016-11-25T11:30:05.161Z,50.3
2016-11-25T11:40:07.166Z,49.8
2016-11-25T11:50:04.963Z,49.8
2016-11-25T12:00:17.133Z,50.8
2016-11-25T12:10:17.129Z,50.8
2016-11-25T12:20:16.028Z,50.3
2016-11-25T12:30:04.979Z,50.3
2016-11-25T12:40:27.168Z,50.3
2016-11-25T12:50:08.898Z,50.8
2016-11-25T13:00:07.168Z,50.8
2016-11-25T13:10:05.011Z,50.8
2016-11-25T13:20:37.197Z,50.8
2016-11-25T13:30:17.158Z,50.8
2016-11-25T13:40:17.147Z,50.8
2016-11-25T13:50:05.026Z,50.8
2016-11-25T14:00:37.159Z,50.8
2016-11-25T14:10:05.157Z,50.8
2016-11-25T14:20:17.645Z,50.8
2016-11-25T14:30:05.088Z,51.4
2016-11-25T14:40:37.130Z,50.8
2016-11-25T14:50:17.131Z,50.8
2016-11-25T15:00:17.187Z,50.8
2016-11-25T15:10:05.175Z,50.3
2016-11-25T15:20:37.130Z,50.8
2016-11-25T15:30:17.123Z,50.8
2016-11-25T15:40:05.129Z,50.3
2016-11-25T15:50:37.163Z,50.8
2016-11-25T16:00:37.195Z,50.3
2016-11-25T16:10:17.194Z,50.3
2016-11-25T16:20:17.129Z,49.8
2016-11-25T16:30:06.015Z,49.8
2016-11-25T16:40:05.134Z,49.8
2016-11-25T16:50:17.161Z,49.2
2016-11-25T17:00:05.381Z,48.7
2016-11-25T17:10:37.156Z,49.2
2016-11-25T17:20:01.740Z,48.7
2016-11-25T17:30:17.130Z,48.7
2016-11-25T17:40:17.148Z,48.7
2016-11-25T17:50:17.162Z,49.2
2016-11-25T18:00:04.807Z,48.7
2016-11-25T18:10:27.160Z,48.7
2016-11-25T18:20:05.386Z,48.7
2016-11-25T18:30:37.160Z,48.2
2016-11-25T18:40:05.269Z,48.7
2016-11-25T18:50:17.162Z,48.2
2016-11-25T19:00:17.163Z,48.7
2016-11-25T19:10:14.234Z,48.2
2016-11-25T19:20:05.277Z,48.2
2016-11-25T19:30:27.130Z,47.6
2016-11-25T19:40:07.178Z,47.6
2016-11-25T19:50:07.128Z,48.7
2016-11-25T20:00:05.283Z,48.7
2016-11-25T20:10:37.122Z,48.2
2016-11-25T20:20:17.128Z,48.7
2016-11-25T20:30:17.121Z,47.6
2016-11-25T20:40:17.127Z,47.6
2016-11-25T20:50:03.725Z,48.2
2016-11-25T21:00:13.349Z,48.7
2016-11-25T21:10:17.190Z,48.7
2016-11-25T21:20:17.165Z,48.7
2016-11-25T21:30:17.134Z,48.7
2016-11-25T21:40:17.157Z,48.7
2016-11-25T21:50:17.159Z,48.2
2016-11-25T22:00:17.196Z,47.6
2016-11-25T22:10:17.184Z,48.7
2016-11-25T22:20:17.132Z,47.6
2016-11-25T22:30:17.160Z,48.2
2016-11-25T22:40:17.147Z,48.2
2016-11-25T22:50:17.162Z,48.7
2016-11-25T23:00:17.162Z,47.6
2016-11-25T23:10:17.129Z,47.6
2016-11-25T23:20:17.130Z,47.6
2016-11-25T23:30:03.582Z,47.6
2016-11-25T23:40:14.876Z,47.6
2016-11-25T23:50:17.164Z,48.2
